Time;durP1;ratioP1;P1;durP2;ratioP2;P2;SDS_P1;SDS_P2;PMS_P1;PMS_P2;Temp;Humidity;BMP_temperature;BMP_pressure;BME280_temperature;BME280_humidity;BME280_pressure;Samples;Min_cycle;Max_cycle;Signal;HPM_P1;HPM_P2
2022/08/20 00:01:33;;;;;;;2.25;2.00;;;22.50;96.10;;;;;;10408737;28;20037;-61
2022/08/20 00:06:34;;;;;;;2.90;2.00;;;22.50;96.10;;;;;;10437861;28;20107;-61
2022/08/20 00:11:35;;;;;;;2.85;1.80;;;22.40;96.10;;;;;;10438085;28;20108;-62
2022/08/20 00:16:36;;;;;;;3.35;2.03;;;22.40;96.10;;;;;;10415484;28;20028;-61
2022/08/20 00:21:37;;;;;;;4.30;1.80;;;22.40;96.10;;;;;;10436825;28;20017;-62
2022/08/20 00:26:37;;;;;;;2.45;2.15;;;22.40;96.10;;;;;;10439060;28;20405;-61
2022/08/20 00:31:38;;;;;;;1.98;1.75;;;22.40;96.10;;;;;;10440007;28;20452;-63
2022/08/20 00:36:39;;;;;;;2.08;1.70;;;22.30;96.00;;;;;;10440157;28;20401;-62
2022/08/20 00:41:40;;;;;;;3.50;2.00;;;22.30;96.00;;;;;;10438804;28;20028;-62
2022/08/20 00:46:43;;;;;;;3.08;2.15;;;22.30;96.10;;;;;;10439710;28;20040;-61
2022/08/20 00:51:49;;;;;;;3.17;1.88;;;22.30;96.10;;;;;;10437959;28;20017;-61
2022/08/20 00:56:54;;;;;;;3.92;2.05;;;22.30;96.00;;;;;;10437095;28;20085;-63
2022/08/20 01:01:56;;;;;;;2.85;2.20;;;22.30;96.10;;;;;;10424323;28;20041;-62
2022/08/20 01:06:57;;;;;;;4.40;2.30;;;22.30;96.00;;;;;;10395866;28;20045;-61
2022/08/20 01:11:58;;;;;;;2.30;1.90;;;22.20;96.00;;;;;;10393103;28;20076;-61
2022/08/20 01:17:02;;;;;;;3.40;2.13;;;22.20;96.00;;;;;;10393528;28;20508;-62
2022/08/20 01:23:25;;;;;;;2.50;1.88;;;22.20;96.30;;;;;;10391037;28;20033;-62
2022/08/20 01:27:24;;;;;;;4.68;2.22;;;22.20;96.00;;;;;;10398535;28;20120;-61
2022/08/20 01:32:25;;;;;;;2.78;2.33;;;22.20;96.00;;;;;;10390716;28;20500;-62
2022/08/20 01:37:25;;;;;;;3.15;2.15;;;22.20;96.00;;;;;;10394560;28;20125;-61
2022/08/20 01:42:36;;;;;;;2.05;1.85;;;22.20;96.00;;;;;;10386630;28;20033;-62
2022/08/20 01:47:37;;;;;;;2.83;2.10;;;22.20;96.00;;;;;;10395315;28;20045;-61
2022/08/20 01:52:59;;;;;;;3.42;2.30;;;22.10;96.00;;;;;;10386586;28;20116;-62
2022/08/20 01:58:00;;;;;;;3.58;2.20;;;22.10;96.00;;;;;;10392950;28;20087;-61
2022/08/20 02:03:02;;;;;;;3.40;2.22;;;22.10;96.00;;;;;;10413787;28;20052;-62
2022/08/20 02:08:04;;;;;;;3.30;2.17;;;22.10;96.10;;;;;;10451270;28;20017;-62
2022/08/20 02:13:08;;;;;;;3.40;2.00;;;22.00;96.00;;;;;;10419037;28;20112;-62
2022/08/20 02:18:12;;;;;;;3.10;1.98;;;22.00;96.00;;;;;;10427623;28;20021;-62
2022/08/20 02:23:14;;;;;;;3.17;2.20;;;22.00;96.00;;;;;;10441294;28;20037;-61
2022/08/20 02:28:18;;;;;;;2.80;2.08;;;22.00;96.00;;;;;;10438590;28;20029;-61
2022/08/20 02:33:22;;;;;;;2.85;1.88;;;22.00;96.00;;;;;;10435459;28;20758;-61
2022/08/20 02:38:23;;;;;;;2.58;2.00;;;22.00;96.00;;;;;;10438064;28;20124;-61
2022/08/20 02:43:24;;;;;;;2.42;2.15;;;22.00;96.00;;;;;;10440294;28;20045;-62
2022/08/20 02:48:26;;;;;;;3.63;2.10;;;22.00;96.00;;;;;;10440702;28;20032;-61
2022/08/20 02:53:32;;;;;;;3.92;2.38;;;21.90;96.00;;;;;;10438801;28;20412;-61
2022/08/20 02:58:34;;;;;;;3.53;2.30;;;21.90;96.00;;;;;;10447584;28;20521;-62
2022/08/20 03:03:34;;;;;;;3.88;2.45;;;21.90;96.00;;;;;;10441597;28;20080;-61
2022/08/20 03:08:36;;;;;;;3.85;2.15;;;21.90;96.00;;;;;;10439936;28;20037;-62
2022/08/20 03:13:38;;;;;;;4.13;2.20;;;21.90;96.00;;;;;;10442658;28;20047;-62
2022/08/20 03:18:44;;;;;;;4.25;2.05;;;21.80;96.00;;;;;;10436324;28;20068;-61
2022/08/20 03:23:45;;;;;;;2.40;2.20;;;21.80;95.90;;;;;;10414262;28;20041;-62
2022/08/20 03:28:46;;;;;;;4.28;2.50;;;21.80;95.90;;;;;;10436772;28;20385;-61
2022/08/20 03:33:47;;;;;;;3.78;2.25;;;21.80;95.90;;;;;;10436443;28;20079;-62
2022/08/20 03:38:48;;;;;;;3.63;2.58;;;21.80;95.90;;;;;;10445986;28;20032;-62
2022/08/20 03:43:49;;;;;;;3.35;2.30;;;21.80;95.90;;;;;;10426798;28;20037;-62
2022/08/20 03:48:51;;;;;;;2.88;1.80;;;21.80;95.90;;;;;;10423632;28;20124;-62
2022/08/20 03:53:52;;;;;;;3.25;2.20;;;21.80;95.90;;;;;;10457008;28;20108;-62
2022/08/20 03:58:54;;;;;;;2.45;2.00;;;21.70;95.90;;;;;;10446472;28;20515;-62
2022/08/20 04:03:57;;;;;;;3.25;2.30;;;21.70;95.90;;;;;;10447066;28;20405;-62
2022/08/20 04:08:58;;;;;;;4.63;2.30;;;21.70;95.90;;;;;;10422308;28;20392;-63
2022/08/20 04:13:59;;;;;;;4.55;2.40;;;21.70;95.90;;;;;;10440270;28;20033;-63
2022/08/20 04:19:00;;;;;;;3.05;2.10;;;21.70;95.90;;;;;;10442098;28;20025;-62
2022/08/20 04:24:03;;;;;;;4.50;2.42;;;21.60;95.90;;;;;;10443766;28;20037;-62
2022/08/20 04:29:04;;;;;;;3.83;2.15;;;21.60;95.90;;;;;;10445580;28;20021;-62
2022/08/20 04:34:08;;;;;;;2.35;1.95;;;21.60;95.80;;;;;;10440353;28;20033;-62
2022/08/20 04:39:08;;;;;;;3.17;2.00;;;21.60;95.80;;;;;;10440439;28;20025;-61
2022/08/20 04:44:10;;;;;;;4.75;2.60;;;21.60;95.80;;;;;;10452677;28;20045;-63
2022/08/20 04:49:11;;;;;;;2.70;2.00;;;21.60;95.80;;;;;;10409288;28;20017;-62
2022/08/20 04:54:13;;;;;;;2.40;1.92;;;21.40;95.80;;;;;;10364689;28;20959;-62
2022/08/20 04:59:14;;;;;;;4.05;2.15;;;21.50;95.80;;;;;;10367843;28;20376;-62
2022/08/20 05:04:14;;;;;;;4.10;2.03;;;21.50;95.70;;;;;;10348267;28;20059;-62
2022/08/20 05:09:15;;;;;;;3.72;2.00;;;21.50;95.70;;;;;;10375240;28;20028;-61
2022/08/20 05:14:16;;;;;;;3.22;1.88;;;21.50;95.70;;;;;;10347424;28;20126;-61
2022/08/20 05:19:17;;;;;;;4.47;2.10;;;21.50;95.70;;;;;;10362226;28;20031;-62
2022/08/20 05:24:20;;;;;;;5.10;1.98;;;21.50;95.60;;;;;;10364793;28;20045;-64
2022/08/20 05:29:22;;;;;;;4.38;2.13;;;21.50;95.60;;;;;;10352144;28;20035;-62
2022/08/20 05:34:23;;;;;;;5.90;1.90;;;21.50;95.50;;;;;;10364714;28;20153;-62
2022/08/20 05:39:24;;;;;;;3.80;2.47;;;21.50;95.50;;;;;;10339015;28;20039;-61
2022/08/20 05:44:24;;;;;;;2.70;1.80;;;21.50;95.50;;;;;;10368727;28;20870;-62
2022/08/20 05:49:25;;;;;;;5.18;1.90;;;21.50;95.40;;;;;;10375930;28;20258;-63
2022/08/20 05:54:26;;;;;;;2.78;1.98;;;21.50;95.40;;;;;;10363871;28;20394;-62
2022/08/20 05:59:27;;;;;;;3.92;2.10;;;21.50;95.30;;;;;;10344937;28;20367;-62
2022/08/20 06:04:30;;;;;;;2.75;1.70;;;21.50;95.30;;;;;;10368264;28;20048;-61
2022/08/20 06:09:32;;;;;;;4.28;2.72;;;21.50;95.20;;;;;;10369507;28;20035;-62
2022/08/20 06:14:33;;;;;;;2.78;1.80;;;21.40;95.20;;;;;;10360416;28;20067;-61
2022/08/20 06:19:35;;;;;;;2.65;1.55;;;21.20;95.10;;;;;;10358326;28;21055;-62
2022/08/20 06:24:35;;;;;;;2.95;2.00;;;21.50;95.10;;;;;;10337560;28;20637;-61
2022/08/20 06:29:37;;;;;;;2.92;1.80;;;21.50;95.10;;;;;;10357522;28;20048;-61
2022/08/20 06:34:37;;;;;;;4.38;2.10;;;21.50;95.00;;;;;;10362133;28;20459;-61
2022/08/20 06:39:38;;;;;;;2.92;1.40;;;21.50;95.00;;;;;;10358820;28;20037;-61
2022/08/20 06:44:39;;;;;;;3.40;1.90;;;21.40;94.90;;;;;;10359097;28;20040;-61
2022/08/20 06:49:39;;;;;;;3.55;1.85;;;21.60;95.00;;;;;;10356072;28;20115;-61
2022/08/20 06:54:40;;;;;;;1.88;1.42;;;21.50;94.90;;;;;;10359417;28;20033;-61
2022/08/20 06:59:41;;;;;;;4.43;1.80;;;21.50;94.80;;;;;;10361614;28;20091;-61
2022/08/20 07:04:42;;;;;;;5.22;1.70;;;21.50;94.80;;;;;;10325723;28;20091;-63
2022/08/20 07:09:42;;;;;;;3.17;1.50;;;21.50;94.70;;;;;;10317160;28;20033;-61
2022/08/20 07:14:43;;;;;;;1.45;1.23;;;21.50;94.70;;;;;;10319625;28;20041;-61
2022/08/20 07:19:44;;;;;;;3.88;1.60;;;21.60;94.70;;;;;;10327129;28;20026;-61
2022/08/20 07:24:45;;;;;;;3.63;1.33;;;21.60;94.60;;;;;;10327250;28;20352;-61
2022/08/20 07:35:08;;;;;;;2.60;1.52;;;21.60;94.60;;;;;;10322115;28;20025;-62
2022/08/20 07:40:16;;;;;;;2.90;1.30;;;21.60;94.50;;;;;;10319592;28;20429;-63
2022/08/20 07:45:19;;;;;;;4.67;1.37;;;21.60;94.40;;;;;;10316039;28;20088;-63
2022/08/20 07:50:25;;;;;;;1.95;1.30;;;21.70;94.50;;;;;;10319387;28;20761;-63
2022/08/20 07:55:26;;;;;;;2.97;1.50;;;21.70;94.40;;;;;;10302252;28;20033;-63
2022/08/20 08:00:27;;;;;;;3.55;1.40;;;21.70;94.10;;;;;;10321471;28;20029;-62
2022/08/20 08:05:30;;;;;;;2.53;1.10;;;21.50;93.90;;;;;;10314603;28;20446;-63
2022/08/20 08:10:34;;;;;;;2.83;1.05;;;21.40;93.70;;;;;;10313176;28;20025;-63
2022/08/20 08:15:39;;;;;;;3.72;1.15;;;21.60;93.70;;;;;;10324728;28;20021;-63
2022/08/20 08:20:43;;;;;;;1.77;1.05;;;21.60;93.60;;;;;;10325777;28;20137;-63
2022/08/20 08:25:44;;;;;;;2.25;1.23;;;21.70;93.50;;;;;;10328531;28;20033;-63
2022/08/20 08:30:47;;;;;;;4.20;1.13;;;21.80;93.50;;;;;;10302558;28;20302;-63
2022/08/20 08:35:48;;;;;;;2.95;0.95;;;21.70;93.40;;;;;;10324221;28;20033;-63
2022/08/20 08:40:52;;;;;;;3.42;0.90;;;21.80;93.30;;;;;;10322860;28;20532;-63
2022/08/20 08:46:10;;;;;;;3.10;0.90;;;22.00;93.30;;;;;;10326864;28;20045;-63
2022/08/20 08:51:15;;;;;;;2.05;1.30;;;21.80;93.10;;;;;;10312964;28;20029;-63
2022/08/20 08:56:16;;;;;;;3.35;1.08;;;21.90;93.20;;;;;;10325973;28;20298;-63
2022/08/20 09:01:19;;;;;;;2.50;1.10;;;21.90;93.20;;;;;;10334120;28;20052;-63
2022/08/20 09:06:24;;;;;;;2.55;0.90;;;21.90;93.10;;;;;;10332132;28;20128;-63
2022/08/20 09:11:25;;;;;;;2.47;1.10;;;21.90;93.10;;;;;;10337017;28;20037;-63
2022/08/20 09:16:27;;;;;;;1.65;0.73;;;22.00;93.10;;;;;;10339206;28;20135;-63
2022/08/20 09:21:28;;;;;;;2.97;1.20;;;22.00;93.10;;;;;;10345827;28;20037;-64
2022/08/20 09:26:29;;;;;;;0.90;0.80;;;22.00;93.00;;;;;;10333519;28;20665;-64
2022/08/20 09:31:30;;;;;;;2.08;1.00;;;22.10;93.00;;;;;;10341053;28;20029;-64
2022/08/20 09:36:31;;;;;;;2.08;1.30;;;22.10;93.00;;;;;;10337918;28;20404;-63
2022/08/20 09:41:32;;;;;;;3.58;0.93;;;22.10;92.90;;;;;;10353440;28;20900;-64
2022/08/20 09:46:33;;;;;;;2.05;1.10;;;22.10;92.80;;;;;;10334634;28;20386;-64
2022/08/20 09:51:34;;;;;;;1.88;1.15;;;22.20;92.70;;;;;;10328128;28;20025;-63
2022/08/20 09:56:35;;;;;;;5.00;1.30;;;22.20;92.60;;;;;;10324100;28;20033;-63
2022/08/20 10:01:39;;;;;;;1.55;0.90;;;22.30;92.60;;;;;;10341868;28;20120;-63
2022/08/20 10:06:41;;;;;;;3.63;1.00;;;22.30;92.50;;;;;;10319645;28;20037;-64
2022/08/20 10:11:41;;;;;;;1.38;1.08;;;22.40;92.50;;;;;;10323484;28;20029;-63
2022/08/20 10:16:42;;;;;;;3.03;0.98;;;22.40;92.40;;;;;;10332073;28;20631;-63
2022/08/20 10:21:43;;;;;;;2.65;0.95;;;22.40;92.30;;;;;;10348458;28;20059;-64
2022/08/20 10:26:44;;;;;;;2.90;1.02;;;22.40;92.20;;;;;;10340181;28;20061;-63
2022/08/20 10:31:45;;;;;;;1.75;1.00;;;22.50;92.10;;;;;;10338399;28;20444;-64
2022/08/20 10:36:46;;;;;;;2.28;0.75;;;22.60;92.00;;;;;;10344265;28;20033;-62
2022/08/20 10:41:46;;;;;;;2.83;1.23;;;22.60;91.90;;;;;;10335070;28;21040;-63
2022/08/20 10:46:47;;;;;;;1.25;0.73;;;22.60;91.80;;;;;;10330754;28;20705;-63
2022/08/20 10:51:48;;;;;;;3.05;0.88;;;22.70;91.60;;;;;;10329238;28;20032;-63
2022/08/20 10:56:49;;;;;;;5.35;0.90;;;22.80;91.20;;;;;;10340424;28;20296;-63
2022/08/20 11:01:50;;;;;;;3.35;0.95;;;22.70;90.00;;;;;;10341159;28;20105;-66
2022/08/20 11:06:50;;;;;;;2.15;0.75;;;22.80;88.50;;;;;;10321097;28;20072;-66
2022/08/20 11:11:51;;;;;;;2.75;1.08;;;22.80;86.90;;;;;;10321771;28;20142;-64
2022/08/20 11:16:52;;;;;;;3.50;1.08;;;22.80;85.30;;;;;;10317225;28;20527;-66
2022/08/20 11:21:53;;;;;;;4.22;1.92;;;23.00;84.30;;;;;;10317573;28;20049;-66
2022/08/20 11:26:53;;;;;;;5.55;1.70;;;23.00;82.50;;;;;;10320557;28;20449;-65
2022/08/20 11:31:54;;;;;;;5.50;1.40;;;23.00;81.70;;;;;;10318506;28;20095;-65
2022/08/20 11:36:57;;;;;;;2.97;0.95;;;22.90;80.60;;;;;;10317484;28;20474;-65
2022/08/20 11:41:58;;;;;;;3.90;1.27;;;22.70;81.10;;;;;;10316642;28;20053;-65
2022/08/20 11:47:03;;;;;;;2.60;1.25;;;22.40;80.50;;;;;;10320393;28;20665;-66
2022/08/20 11:52:04;;;;;;;2.63;0.90;;;22.50;80.70;;;;;;10325198;28;20078;-65
2022/08/20 11:57:05;;;;;;;4.85;1.15;;;22.80;80.20;;;;;;10321315;28;20057;-65
2022/08/20 12:02:06;;;;;;;2.38;1.08;;;23.10;78.60;;;;;;10332257;28;20050;-65
2022/08/20 12:07:12;;;;;;;3.15;0.98;;;23.30;77.90;;;;;;10359600;28;20033;-66
2022/08/20 12:12:13;;;;;;;3.47;1.05;;;23.40;76.20;;;;;;10355843;28;20055;-65
2022/08/20 12:17:20;;;;;;;7.22;1.20;;;23.40;76.70;;;;;;10363688;28;20032;-65
2022/08/20 12:22:21;;;;;;;3.72;0.95;;;23.50;76.50;;;;;;10354797;28;20334;-65
2022/08/20 12:27:24;;;;;;;3.25;0.90;;;23.70;76.10;;;;;;10355321;28;20459;-65
2022/08/20 12:32:28;;;;;;;4.13;1.15;;;23.80;75.90;;;;;;10355521;28;20052;-66
2022/08/20 12:37:30;;;;;;;3.55;1.20;;;24.00;75.20;;;;;;10354866;28;20290;-65
2022/08/20 12:42:31;;;;;;;6.65;2.08;;;24.00;75.40;;;;;;10360316;28;20524;-65
2022/08/20 12:47:34;;;;;;;3.30;0.95;;;23.80;75.30;;;;;;10361461;28;20135;-65
2022/08/20 12:52:35;;;;;;;4.78;1.20;;;23.80;75.20;;;;;;10352618;28;20031;-64
2022/08/20 12:57:42;;;;;;;5.20;1.25;;;23.80;74.80;;;;;;10355661;28;20205;-65
2022/08/20 13:02:43;;;;;;;3.50;1.23;;;23.70;74.80;;;;;;10353164;28;20040;-66
2022/08/20 13:07:45;;;;;;;5.47;1.33;;;23.90;74.30;;;;;;10335722;28;20529;-65
2022/08/20 13:12:46;;;;;;;2.72;1.20;;;24.10;73.80;;;;;;10351087;28;20033;-65
2022/08/20 13:17:51;;;;;;;3.78;1.23;;;24.20;73.20;;;;;;10349711;28;20144;-66
2022/08/20 13:22:53;;;;;;;5.55;1.38;;;24.30;72.10;;;;;;10338683;28;20041;-65
2022/08/20 13:27:56;;;;;;;4.13;1.42;;;24.40;72.50;;;;;;10356163;28;20338;-66
2022/08/20 13:32:57;;;;;;;3.58;1.30;;;24.60;72.40;;;;;;10350420;28;20544;-66
2022/08/20 13:37:57;;;;;;;4.68;2.47;;;24.50;72.40;;;;;;10352777;28;20032;-66
2022/08/20 13:42:59;;;;;;;3.65;1.10;;;24.40;72.20;;;;;;10357055;28;20056;-66
2022/08/20 13:48:00;;;;;;;3.15;1.52;;;24.40;71.80;;;;;;10353424;28;20447;-66
2022/08/20 13:53:01;;;;;;;3.55;1.13;;;24.60;71.60;;;;;;10358351;28;20346;-66
2022/08/20 13:58:06;;;;;;;4.85;1.30;;;24.70;71.00;;;;;;10353356;28;20028;-65
2022/08/20 14:03:07;;;;;;;4.53;1.50;;;24.60;70.00;;;;;;10352021;28;20052;-66
2022/08/20 14:08:11;;;;;;;5.45;1.58;;;24.80;70.80;;;;;;10348545;28;20139;-65
2022/08/20 14:13:12;;;;;;;6.65;1.48;;;25.00;70.40;;;;;;10352684;28;20021;-66
2022/08/20 14:18:14;;;;;;;2.97;1.40;;;25.20;69.50;;;;;;10361879;28;20584;-66
2022/08/20 14:23:16;;;;;;;5.18;1.52;;;25.40;68.90;;;;;;10358368;28;20484;-65
2022/08/20 14:28:22;;;;;;;5.35;1.30;;;25.40;68.90;;;;;;10361393;28;20027;-64
2022/08/20 14:33:23;;;;;;;7.50;1.83;;;25.40;68.60;;;;;;10362276;28;20143;-64
2022/08/20 14:38:45;;;;;;;3.35;1.30;;;25.30;68.70;;;;;;10331566;22;20069;-65
2022/08/20 14:43:45;;;;;;;7.70;2.03;;;25.30;68.80;;;;;;10296693;28;20196;-65
2022/08/20 14:48:46;;;;;;;4.15;1.40;;;25.40;69.80;;;;;;10314315;28;20061;-65
2022/08/20 14:53:47;;;;;;;5.13;1.52;;;25.40;70.30;;;;;;10307364;28;20029;-65
2022/08/20 14:58:47;;;;;;;2.35;1.30;;;25.50;70.50;;;;;;10315850;28;21018;-65
2022/08/20 15:03:48;;;;;;;4.25;1.60;;;25.60;71.10;;;;;;10321721;28;20033;-65
2022/08/20 15:08:49;;;;;;;5.60;2.03;;;25.70;71.30;;;;;;10319621;28;20148;-65
2022/08/20 15:13:52;;;;;;;3.92;1.27;;;25.80;71.50;;;;;;10295061;28;20076;-65
2022/08/20 15:18:53;;;;;;;3.38;1.42;;;25.90;71.70;;;;;;10320162;28;20132;-65
2022/08/20 15:23:54;;;;;;;4.90;1.67;;;25.90;72.00;;;;;;10312021;28;20533;-64
2022/08/20 15:28:55;;;;;;;1.67;1.20;;;26.00;72.30;;;;;;10314788;28;20048;-65
2022/08/20 15:33:56;;;;;;;3.28;1.38;;;25.90;72.60;;;;;;10314241;28;20037;-66
2022/08/20 15:38:57;;;;;;;2.40;1.45;;;25.80;73.20;;;;;;10355056;28;20045;-66
2022/08/20 15:43:57;;;;;;;3.30;1.50;;;25.70;73.60;;;;;;10352444;28;20246;-66
2022/08/20 15:48:59;;;;;;;3.20;1.20;;;25.70;73.90;;;;;;10344203;28;20573;-65
2022/08/20 15:54:09;;;;;;;3.22;1.65;;;25.80;74.20;;;;;;10343232;28;20438;-63
2022/08/20 15:59:38;;;;;;;2.58;1.50;;;25.90;74.30;;;;;;10372905;28;20838;-63
2022/08/20 16:05:05;;;;;;;4.70;1.27;;;26.00;74.50;;;;;;10386603;28;20036;-64
2022/08/20 16:10:42;;;;;;;2.17;1.40;;;26.00;74.90;;;;;;10369929;28;20516;-64
2022/08/20 16:15:43;;;;;;;2.90;1.53;;;26.00;75.30;;;;;;10354872;28;20045;-63
2022/08/20 16:20:48;;;;;;;3.55;1.48;;;25.90;75.30;;;;;;10362823;28;20098;-62
2022/08/20 16:26:10;;;;;;;2.70;1.30;;;25.80;75.60;;;;;;10366923;28;20376;-62
2022/08/20 16:31:16;;;;;;;1.92;1.25;;;25.70;76.00;;;;;;10364398;28;20480;-62
2022/08/20 16:36:58;;;;;;;3.13;1.27;;;25.60;76.50;;;;;;10366911;28;20249;-62
2022/08/20 16:42:00;;;;;;;2.42;1.30;;;25.60;76.80;;;;;;10328797;28;20408;-62
2022/08/20 16:47:19;;;;;;;3.20;1.70;;;25.50;76.90;;;;;;10368160;28;20036;-62
2022/08/20 16:52:19;;;;;;;3.65;1.40;;;25.60;77.20;;;;;;10365709;28;20460;-62
2022/08/20 16:57:20;;;;;;;2.63;1.58;;;25.50;77.40;;;;;;10368344;28;20078;-63
2022/08/20 17:02:22;;;;;;;5.45;1.48;;;25.40;77.60;;;;;;10345506;28;20397;-62
2022/08/20 17:07:38;;;;;;;3.03;1.45;;;25.30;77.90;;;;;;10363577;28;20132;-63
2022/08/20 17:12:39;;;;;;;3.40;1.70;;;25.30;78.10;;;;;;10360881;28;20032;-62
2022/08/20 17:17:40;;;;;;;2.42;1.42;;;25.20;78.30;;;;;;10371157;28;20542;-62
2022/08/20 17:22:52;;;;;;;1.48;1.25;;;25.20;78.60;;;;;;10366368;28;20025;-63
2022/08/20 17:27:53;;;;;;;2.10;1.42;;;25.10;78.80;;;;;;10364045;28;20052;-63
2022/08/20 17:32:57;;;;;;;2.35;1.30;;;25.00;79.10;;;;;;10374499;28;20856;-62
2022/08/20 17:38:00;;;;;;;3.88;1.60;;;25.00;79.30;;;;;;10342735;28;20041;-60
2022/08/20 17:43:04;;;;;;;2.88;1.60;;;25.00;79.50;;;;;;10316860;28;20475;-60
2022/08/20 17:48:12;;;;;;;3.13;1.40;;;24.90;79.70;;;;;;10320277;28;20068;-62
2022/08/20 17:53:27;;;;;;;2.50;1.40;;;24.90;79.90;;;;;;10318421;28;20036;-62
2022/08/20 17:58:39;;;;;;;2.38;1.50;;;24.80;80.10;;;;;;10315554;28;20103;-62
2022/08/20 18:03:40;;;;;;;2.70;1.40;;;24.80;80.30;;;;;;10320304;28;20305;-62
2022/08/20 18:08:51;;;;;;;1.70;1.25;;;24.80;80.50;;;;;;10315808;28;20106;-62
2022/08/20 18:14:16;;;;;;;2.58;1.48;;;24.70;81.20;;;;;;10317202;28;20478;-63
2022/08/20 18:19:35;;;;;;;2.53;1.50;;;24.70;80.90;;;;;;10319195;28;20060;-62
2022/08/20 18:24:41;;;;;;;3.63;1.83;;;24.70;81.10;;;;;;10320413;28;20472;-63
2022/08/20 18:29:44;;;;;;;3.25;1.35;;;24.50;81.20;;;;;;10295290;28;20806;-62
2022/08/20 18:34:47;;;;;;;2.17;1.40;;;24.50;81.40;;;;;;10321097;28;20022;-62
2022/08/20 18:39:49;;;;;;;3.20;1.33;;;24.50;81.60;;;;;;10349539;28;20158;-63
2022/08/20 18:44:51;;;;;;;3.08;1.40;;;24.40;81.70;;;;;;10358813;28;20033;-62
2022/08/20 18:50:26;;;;;;;1.77;1.40;;;24.40;81.80;;;;;;10358805;28;20029;-62
2022/08/20 18:55:27;;;;;;;3.17;1.40;;;24.40;82.00;;;;;;10358888;28;20388;-62
2022/08/20 19:00:40;;;;;;;1.77;1.40;;;24.30;82.10;;;;;;10331300;28;20352;-63
2022/08/20 19:06:00;;;;;;;2.95;1.30;;;24.20;82.30;;;;;;10360494;28;20517;-62
2022/08/20 19:11:29;;;;;;;3.20;1.52;;;24.20;82.30;;;;;;10354888;28;20036;-62
2022/08/20 19:16:38;;;;;;;3.50;1.50;;;24.20;82.50;;;;;;10356911;28;20144;-62
2022/08/20 19:21:41;;;;;;;2.80;1.50;;;24.10;82.60;;;;;;10390642;28;20036;-62
2022/08/20 19:26:51;;;;;;;3.42;1.40;;;24.10;82.70;;;;;;10439757;28;20493;-62
2022/08/20 19:32:01;;;;;;;4.07;1.55;;;24.00;82.70;;;;;;10421919;28;20021;-62
2022/08/20 19:37:13;;;;;;;2.42;1.45;;;24.00;82.80;;;;;;10442980;28;20033;-62
2022/08/20 19:42:18;;;;;;;2.63;1.40;;;24.00;82.90;;;;;;10439740;28;20064;-62
2022/08/20 19:47:39;;;;;;;2.60;1.35;;;23.90;83.00;;;;;;10441878;28;20132;-62
2022/08/20 19:53:17;;;;;;;3.08;1.40;;;23.90;83.10;;;;;;10442523;28;20288;-62
2022/08/20 19:58:19;;;;;;;2.30;1.48;;;23.80;83.10;;;;;;10440679;28;20022;-62
2022/08/20 20:03:33;;;;;;;3.15;1.30;;;23.80;83.30;;;;;;10442792;28;20036;-62
2022/08/20 20:08:57;;;;;;;4.43;1.50;;;23.70;83.30;;;;;;10441461;28;20044;-62
2022/08/20 20:14:04;;;;;;;5.57;1.55;;;23.70;83.30;;;;;;10442600;28;20021;-62
2022/08/20 20:19:08;;;;;;;4.38;1.67;;;23.60;83.40;;;;;;10442487;28;20025;-62
2022/08/20 20:24:18;;;;;;;4.53;1.52;;;23.60;83.50;;;;;;10440009;28;20044;-63
2022/08/20 20:29:25;;;;;;;4.03;1.92;;;23.60;83.50;;;;;;10438470;28;20059;-62
2022/08/20 20:34:30;;;;;;;4.95;1.88;;;23.50;83.60;;;;;;10441177;28;20030;-62
2022/08/20 20:39:36;;;;;;;2.58;1.58;;;23.50;84.30;;;;;;10437411;28;20469;-62
2022/08/20 20:44:43;;;;;;;3.03;1.40;;;23.50;83.80;;;;;;10440878;28;20037;-62
2022/08/20 20:49:48;;;;;;;4.03;1.30;;;23.40;83.80;;;;;;10440145;28;20029;-62
2022/08/20 20:54:49;;;;;;;3.00;1.58;;;23.40;83.90;;;;;;10439388;28;20025;-61
2022/08/20 20:59:51;;;;;;;1.30;1.20;;;23.30;83.90;;;;;;10413941;28;20029;-62
2022/08/20 21:04:52;;;;;;;2.35;1.20;;;23.30;84.00;;;;;;10437042;28;20427;-62
2022/08/20 21:09:55;;;;;;;3.58;1.60;;;23.20;84.00;;;;;;10439189;28;20020;-62
2022/08/20 21:14:56;;;;;;;1.92;1.23;;;23.20;84.10;;;;;;10438804;28;20067;-62
2022/08/20 21:19:59;;;;;;;3.40;1.67;;;23.20;84.20;;;;;;10438915;28;20493;-62
2022/08/20 21:25:01;;;;;;;5.05;1.58;;;23.10;84.20;;;;;;10436074;28;20091;-62
2022/08/20 21:30:04;;;;;;;2.92;1.48;;;23.10;84.30;;;;;;10437649;28;20430;-62
2022/08/20 21:35:06;;;;;;;4.10;1.70;;;23.10;84.30;;;;;;10438484;28;20025;-62
2022/08/20 21:40:08;;;;;;;2.03;1.52;;;23.00;84.30;;;;;;10438023;28;20051;-63
2022/08/20 21:45:13;;;;;;;3.28;1.70;;;23.00;84.50;;;;;;10435421;28;20124;-63
2022/08/20 21:50:15;;;;;;;5.35;1.90;;;23.00;84.50;;;;;;10435126;28;20048;-62
2022/08/20 21:55:16;;;;;;;3.67;1.80;;;22.90;84.50;;;;;;10435823;28;20520;-62
2022/08/20 22:00:48;;;;;;;3.28;1.70;;;22.90;84.60;;;;;;10435117;28;20032;-62
2022/08/20 22:05:49;;;;;;;2.50;1.52;;;22.90;84.60;;;;;;10436546;28;20055;-62
2022/08/20 22:10:53;;;;;;;4.43;1.70;;;22.80;84.70;;;;;;10436363;28;20025;-62
2022/08/20 22:15:54;;;;;;;2.42;1.60;;;22.80;84.80;;;;;;10433973;28;20029;-62
2022/08/20 22:20:55;;;;;;;2.83;1.70;;;22.70;84.70;;;;;;10429695;28;20025;-62
2022/08/20 22:25:56;;;;;;;3.13;1.88;;;22.70;84.80;;;;;;10432329;28;20086;-63
2022/08/20 22:30:57;;;;;;;2.90;1.75;;;22.70;84.90;;;;;;10416389;28;20025;-62
2022/08/20 22:35:58;;;;;;;2.63;1.70;;;22.60;84.90;;;;;;10433302;28;20517;-62
2022/08/20 22:40:59;;;;;;;3.80;1.80;;;22.60;84.90;;;;;;10435641;28;20422;-62
2022/08/20 22:46:01;;;;;;;3.67;1.80;;;22.50;84.90;;;;;;10419928;28;20132;-62
2022/08/20 22:51:02;;;;;;;2.58;2.03;;;22.50;85.00;;;;;;10421523;28;20521;-62
2022/08/20 22:56:03;;;;;;;4.22;1.90;;;22.50;85.00;;;;;;10439051;28;20503;-62
2022/08/20 23:01:04;;;;;;;3.60;2.35;;;22.50;85.00;;;;;;10442789;28;20025;-62
2022/08/20 23:06:06;;;;;;;2.60;1.70;;;22.40;85.00;;;;;;10442629;28;20040;-62
2022/08/20 23:11:08;;;;;;;2.60;1.80;;;22.40;85.00;;;;;;10415236;28;20032;-62
2022/08/20 23:16:08;;;;;;;2.75;1.77;;;22.30;85.00;;;;;;10438712;28;20032;-62
2022/08/20 23:21:09;;;;;;;3.10;1.63;;;22.30;85.00;;;;;;10440053;28;20021;-62
2022/08/20 23:26:14;;;;;;;3.33;1.77;;;22.20;84.90;;;;;;10439443;28;20557;-62
2022/08/20 23:31:14;;;;;;;3.35;1.75;;;22.20;85.00;;;;;;10440825;28;20280;-62
2022/08/20 23:36:17;;;;;;;5.25;1.80;;;22.20;85.00;;;;;;10432548;28;20092;-62
2022/08/20 23:41:18;;;;;;;2.45;1.95;;;22.20;85.00;;;;;;10401416;28;20046;-62
2022/08/20 23:46:22;;;;;;;5.10;2.03;;;22.10;84.90;;;;;;10414472;28;20132;-62
2022/08/20 23:51:23;;;;;;;4.00;1.98;;;22.10;85.00;;;;;;10406282;28;20348;-62
2022/08/20 23:56:24;;;;;;;1.70;1.60;;;22.10;85.00;;;;;;10407564;28;20041;-62
